sensor_id;sensor_type;location;lat;lon;timestamp;temperature;humidity
7502;DHT22;3792;47.740;7.606;2023-02-05T00:01:56;3.30;99.90
7502;DHT22;3792;47.740;7.606;2023-02-05T00:04:23;3.30;99.90
7502;DHT22;3792;47.740;7.606;2023-02-05T00:06:50;3.20;99.90
7502;DHT22;3792;47.740;7.606;2023-02-05T00:09:17;3.20;99.90
7502;DHT22;3792;47.740;7.606;2023-02-05T00:11:44;3.10;99.90
7502;DHT22;3792;47.740;7.606;2023-02-05T00:14:12;3.10;99.90
7502;DHT22;3792;47.740;7.606;2023-02-05T00:16:39;3.10;99.90
7502;DHT22;3792;47.740;7.606;2023-02-05T00:19:07;3.00;99.90
7502;DHT22;3792;47.740;7.606;2023-02-05T00:21:34;2.90;99.90
7502;DHT22;3792;47.740;7.606;2023-02-05T00:24:01;2.90;99.90
7502;DHT22;3792;47.740;7.606;2023-02-05T00:26:28;2.90;99.90
7502;DHT22;3792;47.740;7.606;2023-02-05T00:28:55;2.90;99.90
7502;DHT22;3792;47.740;7.606;2023-02-05T00:31:24;2.90;99.90
7502;DHT22;3792;47.740;7.606;2023-02-05T00:33:52;2.90;99.90
7502;DHT22;3792;47.740;7.606;2023-02-05T00:36:20;2.90;99.90
7502;DHT22;3792;47.740;7.606;2023-02-05T00:38:48;2.90;99.90
7502;DHT22;3792;47.740;7.606;2023-02-05T00:41:15;2.80;99.90
7502;DHT22;3792;47.740;7.606;2023-02-05T00:43:43;2.60;99.90
7502;DHT22;3792;47.740;7.606;2023-02-05T00:46:11;2.60;99.90
7502;DHT22;3792;47.740;7.606;2023-02-05T00:48:41;2.70;99.90
7502;DHT22;3792;47.740;7.606;2023-02-05T00:51:09;2.70;99.90
7502;DHT22;3792;47.740;7.606;2023-02-05T00:53:37;2.60;99.90
7502;DHT22;3792;47.740;7.606;2023-02-05T00:56:04;2.70;99.90
7502;DHT22;3792;47.740;7.606;2023-02-05T00:58:31;2.60;99.90
7502;DHT22;3792;47.740;7.606;2023-02-05T01:00:58;2.70;99.90
7502;DHT22;3792;47.740;7.606;2023-02-05T01:03:27;2.60;99.90
7502;DHT22;3792;47.740;7.606;2023-02-05T01:05:55;2.50;99.90
7502;DHT22;3792;47.740;7.606;2023-02-05T01:08:22;2.50;99.90
7502;DHT22;3792;47.740;7.606;2023-02-05T01:10:50;2.40;99.90
7502;DHT22;3792;47.740;7.606;2023-02-05T01:13:18;2.40;99.90
7502;DHT22;3792;47.740;7.606;2023-02-05T01:15:45;2.40;99.90
7502;DHT22;3792;47.740;7.606;2023-02-05T01:18:12;2.40;99.90
7502;DHT22;3792;47.740;7.606;2023-02-05T01:20:40;2.40;99.90
7502;DHT22;3792;47.740;7.606;2023-02-05T01:23:09;2.40;99.90
7502;DHT22;3792;47.740;7.606;2023-02-05T01:25:36;2.40;99.90
7502;DHT22;3792;47.740;7.606;2023-02-05T01:28:04;2.40;99.90
7502;DHT22;3792;47.740;7.606;2023-02-05T01:30:32;2.30;99.90
7502;DHT22;3792;47.740;7.606;2023-02-05T01:32:59;2.30;99.90
7502;DHT22;3792;47.740;7.606;2023-02-05T01:35:26;2.30;99.90
7502;DHT22;3792;47.740;7.606;2023-02-05T01:37:53;2.30;99.90
7502;DHT22;3792;47.740;7.606;2023-02-05T01:40:21;2.30;99.90
7502;DHT22;3792;47.740;7.606;2023-02-05T01:42:48;2.30;99.90
7502;DHT22;3792;47.740;7.606;2023-02-05T01:45:43;2.30;99.90
7502;DHT22;3792;47.740;7.606;2023-02-05T01:48:17;2.40;99.90
7502;DHT22;3792;47.740;7.606;2023-02-05T01:50:48;2.30;99.90
7502;DHT22;3792;47.740;7.606;2023-02-05T01:53:20;2.20;99.90
7502;DHT22;3792;47.740;7.606;2023-02-05T01:55:52;2.00;99.90
7502;DHT22;3792;47.740;7.606;2023-02-05T01:58:20;2.10;99.90
7502;DHT22;3792;47.740;7.606;2023-02-05T02:00:48;2.10;99.90
7502;DHT22;3792;47.740;7.606;2023-02-05T02:03:15;2.10;99.90
7502;DHT22;3792;47.740;7.606;2023-02-05T02:05:42;2.10;99.90
7502;DHT22;3792;47.740;7.606;2023-02-05T02:08:10;2.10;99.90
7502;DHT22;3792;47.740;7.606;2023-02-05T02:10:38;2.10;99.90
7502;DHT22;3792;47.740;7.606;2023-02-05T02:13:09;2.00;99.90
7502;DHT22;3792;47.740;7.606;2023-02-05T02:15:37;2.00;99.90
7502;DHT22;3792;47.740;7.606;2023-02-05T02:18:05;1.90;99.90
7502;DHT22;3792;47.740;7.606;2023-02-05T02:21:02;1.90;99.90
7502;DHT22;3792;47.740;7.606;2023-02-05T02:23:37;1.90;99.90
7502;DHT22;3792;47.740;7.606;2023-02-05T02:26:45;2.00;99.90
7502;DHT22;3792;47.740;7.606;2023-02-05T02:29:18;2.00;99.90
7502;DHT22;3792;47.740;7.606;2023-02-05T02:31:54;1.90;99.90
7502;DHT22;3792;47.740;7.606;2023-02-05T02:34:29;1.80;99.90
7502;DHT22;3792;47.740;7.606;2023-02-05T02:37:00;1.80;99.90
7502;DHT22;3792;47.740;7.606;2023-02-05T02:39:36;1.80;99.90
7502;DHT22;3792;47.740;7.606;2023-02-05T02:42:11;1.80;99.90
7502;DHT22;3792;47.740;7.606;2023-02-05T02:44:47;1.70;99.90
7502;DHT22;3792;47.740;7.606;2023-02-05T02:47:17;1.70;99.90
7502;DHT22;3792;47.740;7.606;2023-02-05T02:49:48;1.70;99.90
7502;DHT22;3792;47.740;7.606;2023-02-05T02:52:18;1.70;99.90
7502;DHT22;3792;47.740;7.606;2023-02-05T02:54:48;1.70;99.90
7502;DHT22;3792;47.740;7.606;2023-02-05T02:57:17;1.70;99.90
7502;DHT22;3792;47.740;7.606;2023-02-05T02:59:47;1.60;99.90
7502;DHT22;3792;47.740;7.606;2023-02-05T03:02:16;1.60;99.90
7502;DHT22;3792;47.740;7.606;2023-02-05T03:04:47;1.60;99.90
7502;DHT22;3792;47.740;7.606;2023-02-05T03:07:19;1.60;99.90
7502;DHT22;3792;47.740;7.606;2023-02-05T03:09:51;1.60;99.90
7502;DHT22;3792;47.740;7.606;2023-02-05T03:12:20;1.60;99.90
7502;DHT22;3792;47.740;7.606;2023-02-05T03:14:49;1.60;99.90
7502;DHT22;3792;47.740;7.606;2023-02-05T03:17:17;1.60;99.90
7502;DHT22;3792;47.740;7.606;2023-02-05T03:19:45;1.60;99.90
7502;DHT22;3792;47.740;7.606;2023-02-05T03:22:13;1.60;99.90
7502;DHT22;3792;47.740;7.606;2023-02-05T03:24:40;1.60;99.90
7502;DHT22;3792;47.740;7.606;2023-02-05T03:27:08;1.60;99.90
7502;DHT22;3792;47.740;7.606;2023-02-05T03:29:37;1.60;99.90
7502;DHT22;3792;47.740;7.606;2023-02-05T03:32:19;1.60;99.90
7502;DHT22;3792;47.740;7.606;2023-02-05T03:34:59;1.60;99.90
7502;DHT22;3792;47.740;7.606;2023-02-05T03:37:32;1.60;99.90
7502;DHT22;3792;47.740;7.606;2023-02-05T03:40:10;1.50;99.90
7502;DHT22;3792;47.740;7.606;2023-02-05T03:42:51;1.50;99.90
7502;DHT22;3792;47.740;7.606;2023-02-05T03:45:30;1.40;99.90
7502;DHT22;3792;47.740;7.606;2023-02-05T03:48:12;1.40;99.90
7502;DHT22;3792;47.740;7.606;2023-02-05T03:50:47;1.40;99.90
7502;DHT22;3792;47.740;7.606;2023-02-05T03:53:20;1.50;99.90
7502;DHT22;3792;47.740;7.606;2023-02-05T03:55:51;1.50;99.90
7502;DHT22;3792;47.740;7.606;2023-02-05T03:58:24;1.50;99.90
7502;DHT22;3792;47.740;7.606;2023-02-05T04:00:53;1.60;99.90
7502;DHT22;3792;47.740;7.606;2023-02-05T04:03:21;1.70;99.90
7502;DHT22;3792;47.740;7.606;2023-02-05T04:05:48;1.80;99.90
7502;DHT22;3792;47.740;7.606;2023-02-05T04:08:15;1.80;99.90
7502;DHT22;3792;47.740;7.606;2023-02-05T04:10:42;1.80;99.90
7502;DHT22;3792;47.740;7.606;2023-02-05T04:13:09;1.80;99.90
7502;DHT22;3792;47.740;7.606;2023-02-05T04:15:36;1.80;99.90
7502;DHT22;3792;47.740;7.606;2023-02-05T04:18:03;1.80;99.90
7502;DHT22;3792;47.740;7.606;2023-02-05T04:20:33;1.70;99.90
7502;DHT22;3792;47.740;7.606;2023-02-05T04:23:00;1.70;99.90
7502;DHT22;3792;47.740;7.606;2023-02-05T04:25:27;1.70;99.90
7502;DHT22;3792;47.740;7.606;2023-02-05T04:27:54;1.70;99.90
7502;DHT22;3792;47.740;7.606;2023-02-05T04:30:21;1.60;99.90
7502;DHT22;3792;47.740;7.606;2023-02-05T04:32:48;1.60;99.90
7502;DHT22;3792;47.740;7.606;2023-02-05T04:35:15;1.60;99.90
7502;DHT22;3792;47.740;7.606;2023-02-05T04:37:43;1.70;99.90
7502;DHT22;3792;47.740;7.606;2023-02-05T04:40:11;1.70;99.90
7502;DHT22;3792;47.740;7.606;2023-02-05T04:42:38;1.70;99.90
7502;DHT22;3792;47.740;7.606;2023-02-05T04:45:05;1.60;99.90
7502;DHT22;3792;47.740;7.606;2023-02-05T04:47:33;1.60;99.90
7502;DHT22;3792;47.740;7.606;2023-02-05T04:50:00;1.60;99.90
7502;DHT22;3792;47.740;7.606;2023-02-05T04:52:27;1.60;99.90
7502;DHT22;3792;47.740;7.606;2023-02-05T04:54:56;1.50;99.90
7502;DHT22;3792;47.740;7.606;2023-02-05T04:57:23;1.20;99.90
7502;DHT22;3792;47.740;7.606;2023-02-05T04:59:50;1.00;99.90
7502;DHT22;3792;47.740;7.606;2023-02-05T05:02:17;0.90;99.90
7502;DHT22;3792;47.740;7.606;2023-02-05T05:04:44;1.00;99.90
7502;DHT22;3792;47.740;7.606;2023-02-05T05:07:11;1.10;99.90
7502;DHT22;3792;47.740;7.606;2023-02-05T05:09:38;1.20;99.90
7502;DHT22;3792;47.740;7.606;2023-02-05T05:12:07;1.30;99.90
7502;DHT22;3792;47.740;7.606;2023-02-05T05:14:34;1.30;99.90
7502;DHT22;3792;47.740;7.606;2023-02-05T05:17:02;1.30;99.90
7502;DHT22;3792;47.740;7.606;2023-02-05T05:19:29;1.30;99.90
7502;DHT22;3792;47.740;7.606;2023-02-05T05:21:56;1.30;99.90
7502;DHT22;3792;47.740;7.606;2023-02-05T05:24:23;1.20;99.90
7502;DHT22;3792;47.740;7.606;2023-02-05T05:26:50;1.20;99.90
7502;DHT22;3792;47.740;7.606;2023-02-05T05:29:18;1.20;99.90
7502;DHT22;3792;47.740;7.606;2023-02-05T05:31:46;1.00;99.90
7502;DHT22;3792;47.740;7.606;2023-02-05T05:34:13;1.10;99.90
7502;DHT22;3792;47.740;7.606;2023-02-05T05:36:40;0.90;99.90
7502;DHT22;3792;47.740;7.606;2023-02-05T05:39:08;0.80;99.90
7502;DHT22;3792;47.740;7.606;2023-02-05T05:41:52;0.90;99.90
7502;DHT22;3792;47.740;7.606;2023-02-05T05:44:38;1.00;99.90
7502;DHT22;3792;47.740;7.606;2023-02-05T05:47:05;1.10;99.90
7502;DHT22;3792;47.740;7.606;2023-02-05T05:49:32;1.20;99.90
7502;DHT22;3792;47.740;7.606;2023-02-05T05:52:00;1.20;99.90
7502;DHT22;3792;47.740;7.606;2023-02-05T05:54:27;1.20;99.90
7502;DHT22;3792;47.740;7.606;2023-02-05T05:56:54;1.20;99.90
7502;DHT22;3792;47.740;7.606;2023-02-05T05:59:21;1.30;99.90
7502;DHT22;3792;47.740;7.606;2023-02-05T06:01:49;1.40;99.90
7502;DHT22;3792;47.740;7.606;2023-02-05T06:04:16;1.50;99.90
7502;DHT22;3792;47.740;7.606;2023-02-05T06:06:43;1.50;99.90
7502;DHT22;3792;47.740;7.606;2023-02-05T06:09:10;1.60;99.90
7502;DHT22;3792;47.740;7.606;2023-02-05T06:11:37;1.60;99.90
7502;DHT22;3792;47.740;7.606;2023-02-05T06:14:04;1.60;99.90
7502;DHT22;3792;47.740;7.606;2023-02-05T06:16:31;1.60;99.90
7502;DHT22;3792;47.740;7.606;2023-02-05T06:19:00;1.60;99.90
7502;DHT22;3792;47.740;7.606;2023-02-05T06:21:27;1.50;99.90
7502;DHT22;3792;47.740;7.606;2023-02-05T06:23:54;1.60;99.90
7502;DHT22;3792;47.740;7.606;2023-02-05T06:26:21;1.60;99.90
7502;DHT22;3792;47.740;7.606;2023-02-05T06:28:48;1.60;99.90
7502;DHT22;3792;47.740;7.606;2023-02-05T06:31:15;1.70;99.90
7502;DHT22;3792;47.740;7.606;2023-02-05T06:33:42;1.70;99.90
7502;DHT22;3792;47.740;7.606;2023-02-05T06:36:11;1.70;99.90
7502;DHT22;3792;47.740;7.606;2023-02-05T06:38:38;1.80;99.90
7502;DHT22;3792;47.740;7.606;2023-02-05T06:41:05;1.80;99.90
7502;DHT22;3792;47.740;7.606;2023-02-05T06:43:32;1.90;99.90
7502;DHT22;3792;47.740;7.606;2023-02-05T06:45:59;1.90;99.90
7502;DHT22;3792;47.740;7.606;2023-02-05T06:48:26;2.00;99.90
7502;DHT22;3792;47.740;7.606;2023-02-05T06:50:53;2.00;99.90
7502;DHT22;3792;47.740;7.606;2023-02-05T06:53:21;2.00;99.90
7502;DHT22;3792;47.740;7.606;2023-02-05T06:55:48;2.00;99.90
7502;DHT22;3792;47.740;7.606;2023-02-05T06:58:15;2.00;99.90
7502;DHT22;3792;47.740;7.606;2023-02-05T07:00:42;2.10;99.90
7502;DHT22;3792;47.740;7.606;2023-02-05T07:03:09;2.20;99.90
7502;DHT22;3792;47.740;7.606;2023-02-05T07:05:36;2.20;99.90
7502;DHT22;3792;47.740;7.606;2023-02-05T07:08:04;2.30;99.90
7502;DHT22;3792;47.740;7.606;2023-02-05T07:10:32;2.40;99.90
7502;DHT22;3792;47.740;7.606;2023-02-05T07:12:59;2.50;99.90
7502;DHT22;3792;47.740;7.606;2023-02-05T07:15:26;2.50;99.90
7502;DHT22;3792;47.740;7.606;2023-02-05T07:17:53;2.60;99.90
7502;DHT22;3792;47.740;7.606;2023-02-05T07:20:21;2.60;99.90
7502;DHT22;3792;47.740;7.606;2023-02-05T07:22:49;2.60;99.90
7502;DHT22;3792;47.740;7.606;2023-02-05T07:25:16;2.50;99.90
7502;DHT22;3792;47.740;7.606;2023-02-05T07:27:44;2.50;99.90
7502;DHT22;3792;47.740;7.606;2023-02-05T07:30:12;2.60;99.90
7502;DHT22;3792;47.740;7.606;2023-02-05T07:32:40;2.60;99.90
7502;DHT22;3792;47.740;7.606;2023-02-05T07:35:07;2.60;99.90
7502;DHT22;3792;47.740;7.606;2023-02-05T07:37:34;2.60;99.90
7502;DHT22;3792;47.740;7.606;2023-02-05T07:40:04;2.60;99.90
7502;DHT22;3792;47.740;7.606;2023-02-05T07:42:32;2.70;99.90
7502;DHT22;3792;47.740;7.606;2023-02-05T07:45:00;2.80;99.90
7502;DHT22;3792;47.740;7.606;2023-02-05T07:47:28;2.80;99.90
7502;DHT22;3792;47.740;7.606;2023-02-05T07:49:56;2.70;99.90
7502;DHT22;3792;47.740;7.606;2023-02-05T07:52:23;2.80;99.90
7502;DHT22;3792;47.740;7.606;2023-02-05T07:54:50;2.80;99.90
7502;DHT22;3792;47.740;7.606;2023-02-05T07:57:18;2.80;99.90
7502;DHT22;3792;47.740;7.606;2023-02-05T07:59:45;2.80;99.90
7502;DHT22;3792;47.740;7.606;2023-02-05T08:02:13;2.90;99.90
7502;DHT22;3792;47.740;7.606;2023-02-05T08:04:41;2.90;99.90
7502;DHT22;3792;47.740;7.606;2023-02-05T08:07:09;3.00;99.90
7502;DHT22;3792;47.740;7.606;2023-02-05T08:09:37;3.00;99.90
7502;DHT22;3792;47.740;7.606;2023-02-05T08:12:05;3.10;99.90
7502;DHT22;3792;47.740;7.606;2023-02-05T08:14:34;3.10;99.90
7502;DHT22;3792;47.740;7.606;2023-02-05T08:17:02;3.10;99.90
7502;DHT22;3792;47.740;7.606;2023-02-05T08:19:32;3.10;99.90
7502;DHT22;3792;47.740;7.606;2023-02-05T08:21:59;3.10;99.90
7502;DHT22;3792;47.740;7.606;2023-02-05T08:24:26;3.20;99.90
7502;DHT22;3792;47.740;7.606;2023-02-05T08:26:53;3.40;99.90
7502;DHT22;3792;47.740;7.606;2023-02-05T08:29:20;3.60;99.90
7502;DHT22;3792;47.740;7.606;2023-02-05T08:31:47;3.70;99.90
7502;DHT22;3792;47.740;7.606;2023-02-05T08:34:15;3.60;99.90
7502;DHT22;3792;47.740;7.606;2023-02-05T08:36:43;3.60;99.90
7502;DHT22;3792;47.740;7.606;2023-02-05T08:39:10;3.50;99.90
7502;DHT22;3792;47.740;7.606;2023-02-05T08:41:37;3.50;99.90
7502;DHT22;3792;47.740;7.606;2023-02-05T08:44:04;3.40;99.90
7502;DHT22;3792;47.740;7.606;2023-02-05T08:46:32;3.40;99.90
7502;DHT22;3792;47.740;7.606;2023-02-05T08:48:59;3.30;99.90
7502;DHT22;3792;47.740;7.606;2023-02-05T08:51:26;3.20;99.90
7502;DHT22;3792;47.740;7.606;2023-02-05T08:53:55;3.20;99.90
7502;DHT22;3792;47.740;7.606;2023-02-05T08:56:22;3.30;99.90
7502;DHT22;3792;47.740;7.606;2023-02-05T08:58:49;3.50;99.90
7502;DHT22;3792;47.740;7.606;2023-02-05T09:01:16;3.50;99.90
7502;DHT22;3792;47.740;7.606;2023-02-05T09:03:44;3.50;99.90
7502;DHT22;3792;47.740;7.606;2023-02-05T09:06:14;3.50;99.90
7502;DHT22;3792;47.740;7.606;2023-02-05T09:08:41;3.50;99.90
7502;DHT22;3792;47.740;7.606;2023-02-05T09:11:10;3.50;99.90
7502;DHT22;3792;47.740;7.606;2023-02-05T09:13:38;3.50;99.90
7502;DHT22;3792;47.740;7.606;2023-02-05T09:16:08;3.40;99.90
7502;DHT22;3792;47.740;7.606;2023-02-05T09:18:35;3.40;99.90
7502;DHT22;3792;47.740;7.606;2023-02-05T09:21:06;3.40;99.90
7502;DHT22;3792;47.740;7.606;2023-02-05T09:23:33;3.50;99.90
7502;DHT22;3792;47.740;7.606;2023-02-05T09:26:00;3.50;99.90
7502;DHT22;3792;47.740;7.606;2023-02-05T09:28:29;3.50;99.90
7502;DHT22;3792;47.740;7.606;2023-02-05T09:30:56;3.60;99.90
7502;DHT22;3792;47.740;7.606;2023-02-05T09:33:23;3.60;99.90
7502;DHT22;3792;47.740;7.606;2023-02-05T09:35:50;3.60;99.90
7502;DHT22;3792;47.740;7.606;2023-02-05T09:38:17;3.60;99.90
7502;DHT22;3792;47.740;7.606;2023-02-05T09:40:53;3.60;99.90
7502;DHT22;3792;47.740;7.606;2023-02-05T09:43:40;3.70;99.90
7502;DHT22;3792;47.740;7.606;2023-02-05T09:46:11;3.70;99.90
7502;DHT22;3792;47.740;7.606;2023-02-05T09:48:51;3.80;99.90
7502;DHT22;3792;47.740;7.606;2023-02-05T09:51:21;3.70;99.90
7502;DHT22;3792;47.740;7.606;2023-02-05T09:53:54;3.80;99.90
7502;DHT22;3792;47.740;7.606;2023-02-05T09:56:23;3.90;99.90
7502;DHT22;3792;47.740;7.606;2023-02-05T09:58:55;4.00;99.90
7502;DHT22;3792;47.740;7.606;2023-02-05T10:01:39;4.00;99.90
7502;DHT22;3792;47.740;7.606;2023-02-05T10:04:06;4.00;99.90
7502;DHT22;3792;47.740;7.606;2023-02-05T10:06:52;4.10;99.90
7502;DHT22;3792;47.740;7.606;2023-02-05T10:12:25;4.20;99.90
7502;DHT22;3792;47.740;7.606;2023-02-05T10:15:06;4.20;99.90
7502;DHT22;3792;47.740;7.606;2023-02-05T10:17:46;4.30;99.90
7502;DHT22;3792;47.740;7.606;2023-02-05T10:23:13;4.30;99.90
7502;DHT22;3792;47.740;7.606;2023-02-05T10:25:50;4.30;99.90
7502;DHT22;3792;47.740;7.606;2023-02-05T10:28:32;4.40;99.90
7502;DHT22;3792;47.740;7.606;2023-02-05T10:31:07;4.40;99.90
7502;DHT22;3792;47.740;7.606;2023-02-05T10:33:45;4.40;99.90
7502;DHT22;3792;47.740;7.606;2023-02-05T10:36:15;4.30;99.90
7502;DHT22;3792;47.740;7.606;2023-02-05T10:38:49;4.30;99.90
7502;DHT22;3792;47.740;7.606;2023-02-05T10:41:21;4.30;99.90
7502;DHT22;3792;47.740;7.606;2023-02-05T10:43:52;4.60;99.90
7502;DHT22;3792;47.740;7.606;2023-02-05T10:46:31;5.00;99.90
7502;DHT22;3792;47.740;7.606;2023-02-05T10:49:05;5.30;99.90
7502;DHT22;3792;47.740;7.606;2023-02-05T10:51:38;5.60;99.90
7502;DHT22;3792;47.740;7.606;2023-02-05T10:54:16;5.90;99.90
7502;DHT22;3792;47.740;7.606;2023-02-05T10:56:45;6.00;99.90
7502;DHT22;3792;47.740;7.606;2023-02-05T10:59:20;6.00;99.90
7502;DHT22;3792;47.740;7.606;2023-02-05T11:01:50;6.00;99.90
7502;DHT22;3792;47.740;7.606;2023-02-05T11:04:24;6.00;99.90
7502;DHT22;3792;47.740;7.606;2023-02-05T11:06:54;5.90;99.90
7502;DHT22;3792;47.740;7.606;2023-02-05T11:09:33;6.00;99.90
7502;DHT22;3792;47.740;7.606;2023-02-05T11:12:01;5.70;99.90
7502;DHT22;3792;47.740;7.606;2023-02-05T11:14:35;5.40;99.90
7502;DHT22;3792;47.740;7.606;2023-02-05T11:17:19;5.20;99.90
7502;DHT22;3792;47.740;7.606;2023-02-05T11:19:54;4.90;99.90
7502;DHT22;3792;47.740;7.606;2023-02-05T11:22:26;4.80;99.90
7502;DHT22;3792;47.740;7.606;2023-02-05T11:25:05;4.80;99.90
7502;DHT22;3792;47.740;7.606;2023-02-05T11:27:34;4.80;99.90
7502;DHT22;3792;47.740;7.606;2023-02-05T11:30:23;4.80;99.90
7502;DHT22;3792;47.740;7.606;2023-02-05T11:32:53;4.80;99.90
7502;DHT22;3792;47.740;7.606;2023-02-05T11:35:23;4.70;99.90
7502;DHT22;3792;47.740;7.606;2023-02-05T11:37:58;4.60;99.90
7502;DHT22;3792;47.740;7.606;2023-02-05T11:40:27;4.50;99.90
7502;DHT22;3792;47.740;7.606;2023-02-05T11:43:02;4.50;99.90
7502;DHT22;3792;47.740;7.606;2023-02-05T11:45:30;4.40;99.90
7502;DHT22;3792;47.740;7.606;2023-02-05T11:48:02;4.40;99.90
7502;DHT22;3792;47.740;7.606;2023-02-05T11:50:30;4.40;99.90
7502;DHT22;3792;47.740;7.606;2023-02-05T11:53:12;4.50;99.90
7502;DHT22;3792;47.740;7.606;2023-02-05T11:55:42;4.60;99.90
7502;DHT22;3792;47.740;7.606;2023-02-05T11:58:20;4.70;99.90
7502;DHT22;3792;47.740;7.606;2023-02-05T12:00:52;4.60;99.90
7502;DHT22;3792;47.740;7.606;2023-02-05T12:03:24;4.60;99.90
7502;DHT22;3792;47.740;7.606;2023-02-05T12:05:59;4.50;99.90
7502;DHT22;3792;47.740;7.606;2023-02-05T12:08:37;4.60;99.90
7502;DHT22;3792;47.740;7.606;2023-02-05T12:11:22;4.60;99.90
7502;DHT22;3792;47.740;7.606;2023-02-05T12:14:03;4.60;99.90
7502;DHT22;3792;47.740;7.606;2023-02-05T12:16:47;4.70;99.90
7502;DHT22;3792;47.740;7.606;2023-02-05T12:19:21;4.60;99.90
7502;DHT22;3792;47.740;7.606;2023-02-05T12:21:50;4.70;99.90
7502;DHT22;3792;47.740;7.606;2023-02-05T12:24:45;4.70;99.90
7502;DHT22;3792;47.740;7.606;2023-02-05T12:27:23;4.80;99.90
7502;DHT22;3792;47.740;7.606;2023-02-05T12:30:21;4.80;99.90
7502;DHT22;3792;47.740;7.606;2023-02-05T12:32:57;4.90;99.90
7502;DHT22;3792;47.740;7.606;2023-02-05T12:35:42;4.80;99.90
7502;DHT22;3792;47.740;7.606;2023-02-05T12:38:21;4.90;99.90
7502;DHT22;3792;47.740;7.606;2023-02-05T12:40:59;4.80;99.90
7502;DHT22;3792;47.740;7.606;2023-02-05T12:43:35;4.80;99.90
7502;DHT22;3792;47.740;7.606;2023-02-05T12:46:29;4.80;99.90
7502;DHT22;3792;47.740;7.606;2023-02-05T12:49:12;4.80;99.90
7502;DHT22;3792;47.740;7.606;2023-02-05T12:52:00;4.90;99.90
7502;DHT22;3792;47.740;7.606;2023-02-05T12:54:49;5.00;99.90
7502;DHT22;3792;47.740;7.606;2023-02-05T12:57:20;5.10;99.90
7502;DHT22;3792;47.740;7.606;2023-02-05T12:59:51;5.20;99.90
7502;DHT22;3792;47.740;7.606;2023-02-05T13:02:26;5.20;99.90
7502;DHT22;3792;47.740;7.606;2023-02-05T13:05:07;5.10;99.90
7502;DHT22;3792;47.740;7.606;2023-02-05T13:07:39;5.10;99.90
7502;DHT22;3792;47.740;7.606;2023-02-05T13:10:14;5.10;99.90
7502;DHT22;3792;47.740;7.606;2023-02-05T13:12:47;5.00;99.90
7502;DHT22;3792;47.740;7.606;2023-02-05T13:15:18;4.90;99.90
7502;DHT22;3792;47.740;7.606;2023-02-05T13:18:00;4.90;99.90
7502;DHT22;3792;47.740;7.606;2023-02-05T13:20:32;4.90;99.90
7502;DHT22;3792;47.740;7.606;2023-02-05T13:23:29;4.90;99.90
7502;DHT22;3792;47.740;7.606;2023-02-05T13:26:16;4.90;99.90
7502;DHT22;3792;47.740;7.606;2023-02-05T13:29:04;4.90;99.90
7502;DHT22;3792;47.740;7.606;2023-02-05T13:31:36;4.90;99.90
7502;DHT22;3792;47.740;7.606;2023-02-05T13:34:07;4.90;99.90
7502;DHT22;3792;47.740;7.606;2023-02-05T13:36:55;4.90;99.90
7502;DHT22;3792;47.740;7.606;2023-02-05T13:39:51;4.90;99.90
7502;DHT22;3792;47.740;7.606;2023-02-05T13:42:55;4.90;99.90
7502;DHT22;3792;47.740;7.606;2023-02-05T13:51:45;5.00;99.90
7502;DHT22;3792;47.740;7.606;2023-02-05T13:54:42;4.90;99.90
7502;DHT22;3792;47.740;7.606;2023-02-05T14:00:18;4.90;99.90
7502;DHT22;3792;47.740;7.606;2023-02-05T14:02:47;4.90;99.90
7502;DHT22;3792;47.740;7.606;2023-02-05T14:05:15;4.90;99.90
7502;DHT22;3792;47.740;7.606;2023-02-05T14:07:53;4.90;99.90
7502;DHT22;3792;47.740;7.606;2023-02-05T14:10:28;4.90;99.90
7502;DHT22;3792;47.740;7.606;2023-02-05T14:13:09;4.90;99.90
7502;DHT22;3792;47.740;7.606;2023-02-05T14:15:40;4.90;99.90
7502;DHT22;3792;47.740;7.606;2023-02-05T14:18:09;5.00;99.90
7502;DHT22;3792;47.740;7.606;2023-02-05T14:20:39;5.00;99.90
7502;DHT22;3792;47.740;7.606;2023-02-05T14:26:14;5.00;99.90
7502;DHT22;3792;47.740;7.606;2023-02-05T14:28:50;5.00;99.90
7502;DHT22;3792;47.740;7.606;2023-02-05T14:34:57;5.00;99.90
7502;DHT22;3792;47.740;7.606;2023-02-05T14:37:37;5.10;99.90
7502;DHT22;3792;47.740;7.606;2023-02-05T14:40:22;5.10;99.90
7502;DHT22;3792;47.740;7.606;2023-02-05T14:42:52;5.10;99.90
7502;DHT22;3792;47.740;7.606;2023-02-05T14:45:21;5.20;99.90
7502;DHT22;3792;47.740;7.606;2023-02-05T14:47:50;5.20;99.90
7502;DHT22;3792;47.740;7.606;2023-02-05T14:50:21;5.10;99.90
7502;DHT22;3792;47.740;7.606;2023-02-05T14:52:51;5.10;99.90
7502;DHT22;3792;47.740;7.606;2023-02-05T14:55:23;5.10;99.90
7502;DHT22;3792;47.740;7.606;2023-02-05T14:57:54;5.20;99.90
7502;DHT22;3792;47.740;7.606;2023-02-05T15:00:28;5.10;99.90
7502;DHT22;3792;47.740;7.606;2023-02-05T15:03:17;5.20;99.90
7502;DHT22;3792;47.740;7.606;2023-02-05T15:05:53;5.20;99.90
7502;DHT22;3792;47.740;7.606;2023-02-05T15:08:54;5.20;99.90
7502;DHT22;3792;47.740;7.606;2023-02-05T15:11:47;5.20;99.90
7502;DHT22;3792;47.740;7.606;2023-02-05T15:14:38;5.20;99.90
7502;DHT22;3792;47.740;7.606;2023-02-05T15:20:27;5.10;99.90
7502;DHT22;3792;47.740;7.606;2023-02-05T15:23:24;5.20;99.90
7502;DHT22;3792;47.740;7.606;2023-02-05T15:25:57;5.20;99.90
7502;DHT22;3792;47.740;7.606;2023-02-05T15:28:31;5.20;99.90
7502;DHT22;3792;47.740;7.606;2023-02-05T15:31:15;5.20;99.90
7502;DHT22;3792;47.740;7.606;2023-02-05T15:33:48;5.20;99.90
7502;DHT22;3792;47.740;7.606;2023-02-05T15:36:24;5.20;99.90
7502;DHT22;3792;47.740;7.606;2023-02-05T15:39:02;5.30;99.90
7502;DHT22;3792;47.740;7.606;2023-02-05T15:41:31;5.30;99.90
7502;DHT22;3792;47.740;7.606;2023-02-05T15:44:02;5.30;99.90
7502;DHT22;3792;47.740;7.606;2023-02-05T15:46:33;5.30;99.90
7502;DHT22;3792;47.740;7.606;2023-02-05T15:49:00;5.30;99.90
7502;DHT22;3792;47.740;7.606;2023-02-05T15:51:31;5.40;99.90
7502;DHT22;3792;47.740;7.606;2023-02-05T15:54:01;5.40;99.90
7502;DHT22;3792;47.740;7.606;2023-02-05T15:56:32;5.30;99.90
7502;DHT22;3792;47.740;7.606;2023-02-05T15:59:03;5.30;99.90
7502;DHT22;3792;47.740;7.606;2023-02-05T16:01:34;5.20;99.90
7502;DHT22;3792;47.740;7.606;2023-02-05T16:04:07;5.20;99.90
7502;DHT22;3792;47.740;7.606;2023-02-05T16:06:43;5.20;99.90
7502;DHT22;3792;47.740;7.606;2023-02-05T16:09:16;5.10;99.90
7502;DHT22;3792;47.740;7.606;2023-02-05T16:11:44;5.10;99.90
7502;DHT22;3792;47.740;7.606;2023-02-05T16:14:13;5.10;99.90
7502;DHT22;3792;47.740;7.606;2023-02-05T16:16:51;5.10;99.90
7502;DHT22;3792;47.740;7.606;2023-02-05T16:19:26;5.20;99.90
7502;DHT22;3792;47.740;7.606;2023-02-05T16:21:57;5.20;99.90
7502;DHT22;3792;47.740;7.606;2023-02-05T16:24:29;5.20;99.90
7502;DHT22;3792;47.740;7.606;2023-02-05T16:27:02;5.30;99.90
7502;DHT22;3792;47.740;7.606;2023-02-05T16:29:33;5.30;99.90
7502;DHT22;3792;47.740;7.606;2023-02-05T16:32:06;5.30;99.90
7502;DHT22;3792;47.740;7.606;2023-02-05T16:34:35;5.20;99.90
7502;DHT22;3792;47.740;7.606;2023-02-05T16:37:07;5.30;99.90
7502;DHT22;3792;47.740;7.606;2023-02-05T16:39:40;5.20;99.90
7502;DHT22;3792;47.740;7.606;2023-02-05T16:42:24;5.20;99.90
7502;DHT22;3792;47.740;7.606;2023-02-05T16:48:22;5.20;99.90
7502;DHT22;3792;47.740;7.606;2023-02-05T16:50:51;5.30;99.90
7502;DHT22;3792;47.740;7.606;2023-02-05T16:53:21;5.30;99.90
7502;DHT22;3792;47.740;7.606;2023-02-05T16:55:51;5.50;99.90
7502;DHT22;3792;47.740;7.606;2023-02-05T16:58:26;5.60;99.90
7502;DHT22;3792;47.740;7.606;2023-02-05T17:00:55;5.60;99.90
7502;DHT22;3792;47.740;7.606;2023-02-05T17:03:30;5.60;99.90
7502;DHT22;3792;47.740;7.606;2023-02-05T17:06:01;5.60;99.90
7502;DHT22;3792;47.740;7.606;2023-02-05T17:08:30;5.50;99.90
7502;DHT22;3792;47.740;7.606;2023-02-05T17:10:59;5.40;99.90
7502;DHT22;3792;47.740;7.606;2023-02-05T17:13:38;5.30;99.90
7502;DHT22;3792;47.740;7.606;2023-02-05T17:16:19;5.30;99.90